Time;durP1;ratioP1;P1;durP2;ratioP2;P2;SDS_P1;SDS_P2;PMS_P1;PMS_P2;Temp;Humidity;BMP_temperature;BMP_pressure;BME280_temperature;BME280_humidity;BME280_pressure;Samples;Min_cycle;Max_cycle;Signal;HPM_P1;HPM_P2
2022/07/31 00:01:39;;;;;;;;;;;;;;;16.46;82.03;98146.70;1324883;88;21138;-75
2022/07/31 00:03:41;;;;;;;36.17;24.45;;;;;;;16.46;82.10;98144.05;1324007;89;20811;-74
2022/07/31 00:05:42;;;;;;;40.80;23.22;;;;;;;16.43;82.08;98144.78;1334019;87;81206;-73
2022/07/31 00:07:43;;;;;;;;;;;;;;;16.43;82.04;98144.28;1337337;88;23687;-74
2022/07/31 00:09:44;;;;;;;32.15;21.37;;;;;;;16.42;82.08;98142.63;1320633;89;67389;-73
2022/07/31 00:11:45;;;;;;;;;;;;;;;16.39;82.11;98145.52;1324481;88;21063;-74
2022/07/31 00:13:46;;;;;;;34.83;22.55;;;;;;;16.38;82.14;98146.52;1329705;88;20211;-74
2022/07/31 00:15:48;;;;;;;30.82;21.37;;;;;;;16.37;82.13;98143.50;1300244;89;81120;-73
2022/07/31 00:17:49;;;;;;;34.20;21.33;;;;;;;16.37;82.13;98139.51;1322880;89;21031;-73
2022/07/31 00:19:50;;;;;;;28.85;19.87;;;;;;;16.37;82.15;98142.66;1320119;89;82460;-74
2022/07/31 00:21:51;;;;;;;;;;;;;;;16.36;82.15;98146.29;1298483;90;22317;-73
2022/07/31 00:23:52;;;;;;;27.07;19.27;;;;;;;16.32;82.19;98143.91;1322557;89;20210;-73
2022/07/31 00:25:53;;;;;;;29.32;19.40;;;;;;;16.32;82.19;98152.34;1321138;88;81020;-74
2022/07/31 00:27:54;;;;;;;;;;;;;;;16.32;82.17;98153.67;1324143;88;21051;-73
2022/07/31 00:29:55;;;;;;;24.82;17.48;;;;;;;16.30;82.22;98156.47;1294681;90;67116;-74
2022/07/31 00:31:56;;;;;;;27.80;17.07;;;;;;;16.28;82.21;98150.92;1302377;90;21272;-74
2022/07/31 00:33:56;;;;;;;;;;;;;;;16.29;82.21;98152.61;1338917;88;20995;-73
2022/07/31 00:35:58;;;;;;;22.10;14.85;;;;;;;16.28;82.28;98150.92;1307051;89;67235;-73
2022/07/31 00:37:59;;;;;;;29.23;16.10;;;;;;;16.26;82.28;98156.37;1306698;89;21063;-73
2022/07/31 00:40:00;;;;;;;;;;;;;;;16.26;82.27;98147.56;1306707;89;81885;-74
2022/07/31 00:42:01;;;;;;;27.05;14.33;;;;;;;16.25;82.36;98155.17;1308513;89;20173;-75
2022/07/31 00:44:02;;;;;;;20.75;14.47;;;;;;;16.24;82.33;98145.51;1308582;89;21070;-72
2022/07/31 00:46:03;;;;;;;22.40;13.78;;;;;;;16.22;82.33;98144.81;1304828;89;82327;-73
2022/07/31 00:48:05;;;;;;;;;;;;;;;16.22;82.35;98142.15;1308952;89;22245;-74
2022/07/31 00:50:06;;;;;;;19.95;13.75;;;;;;;16.21;82.42;98142.62;1307446;89;68686;-73
2022/07/31 00:52:07;;;;;;;16.75;14.83;;;;;;;16.20;82.36;98146.27;1291424;90;21421;-74
2022/07/31 00:54:09;;;;;;;;;;;;;;;16.19;82.37;98147.23;1308386;89;21554;-73
2022/07/31 00:56:09;;;;;;;;;;;;;;;16.19;82.44;98145.08;1308360;89;66903;-75
2022/07/31 00:58:10;;;;;;;20.43;11.45;;;;;;;16.17;82.47;98147.38;1308794;90;20505;-74
2022/07/31 01:00:14;;;;;;;12.58;11.38;;;;;;;16.16;82.43;98142.19;1304594;90;81893;-74
2022/07/31 01:02:15;;;;;;;16.48;12.55;;;;;;;16.15;82.42;98146.64;1308616;89;21050;-74
2022/07/31 01:04:17;;;;;;;;;;;;;;;16.15;82.43;98152.45;1308567;90;81231;-74
2022/07/31 01:06:19;;;;;;;11.33;10.23;;;;;;;16.10;82.48;98138.23;1307531;89;20173;-72
2022/07/31 01:08:20;;;;;;;16.65;11.70;;;;;;;16.13;82.50;98149.94;1328457;88;21340;-73
2022/07/31 01:10:26;;;;;;;12.98;11.73;;;;;;;16.11;82.46;98145.22;1323887;88;82392;-74
2022/07/31 01:15:44;;;;;;;15.10;10.05;;;;;;;16.10;82.44;98139.56;1322510;88;82464;-74
2022/07/31 01:17:48;;;;;;;14.60;11.65;;;;;;;16.09;82.52;98145.84;1326456;88;21579;-74
2022/07/31 01:19:51;;;;;;;14.53;10.65;;;;;;;16.08;82.51;98138.84;1321866;88;82131;-73
2022/07/31 01:22:18;;;;;;;12.50;11.33;;;;;;;16.07;82.54;98139.80;1308780;88;21070;-73
2022/07/31 01:24:42;;;;;;;25.90;12.45;;;;;;;16.06;82.54;98141.27;1303351;89;81193;-73
2022/07/31 01:26:53;;;;;;;15.40;12.53;;;;;;;16.05;82.58;98141.77;1288347;90;21054;-74
2022/07/31 01:29:13;;;;;;;20.25;13.22;;;;;;;16.04;82.57;98138.73;1309937;89;21776;-74
2022/07/31 01:31:21;;;;;;;16.42;12.73;;;;;;;16.05;82.61;98142.23;1307302;89;82283;-75
2022/07/31 01:33:26;;;;;;;18.45;12.88;;;;;;;16.03;82.64;98137.05;1308542;89;21656;-74
2022/07/31 01:35:31;;;;;;;13.90;11.85;;;;;;;16.04;82.65;98137.41;1306234;89;82384;-75
2022/07/31 01:37:41;;;;;;;22.27;12.80;;;;;;;16.04;82.64;98135.25;1300677;91;21088;-73
2022/07/31 01:39:46;;;;;;;18.73;13.15;;;;;;;16.03;82.64;98135.72;1331520;88;81142;-73
2022/07/31 01:41:49;;;;;;;15.95;12.07;;;;;;;16.04;82.66;98129.94;1333048;88;21499;-74
2022/07/31 01:43:53;;;;;;;18.67;13.15;;;;;;;16.03;82.67;98131.73;1333522;88;21697;-73
2022/07/31 01:45:56;;;;;;;14.38;12.80;;;;;;;16.02;82.68;98128.73;1331498;88;81781;-74
2022/07/31 01:47:58;;;;;;;14.55;11.85;;;;;;;16.03;82.70;98129.56;1334281;87;21069;-74
2022/07/31 01:50:01;;;;;;;22.45;14.05;;;;;;;16.03;82.73;98122.92;1307081;90;81882;-73
2022/07/31 01:52:04;;;;;;;21.87;13.95;;;;;;;16.03;82.75;98123.75;1308057;89;21030;-73
2022/07/31 01:54:06;;;;;;;18.92;13.25;;;;;;;16.04;82.75;98123.28;1308462;89;21105;-74
2022/07/31 01:56:08;;;;;;;19.32;13.25;;;;;;;16.04;82.76;98120.63;1306316;89;82073;-74
2022/07/31 01:58:11;;;;;;;32.30;13.75;;;;;;;16.04;82.78;98116.64;1308701;89;21110;-74
2022/07/31 02:00:12;;;;;;;14.33;12.53;;;;;;;16.04;82.79;98116.14;1298337;91;81154;-72
2022/07/31 02:02:15;;;;;;;16.42;12.07;;;;;;;16.04;82.79;98112.66;1333922;89;21019;-73
2022/07/31 02:04:18;;;;;;;26.93;13.55;;;;;;;16.05;82.82;98115.64;1307960;90;81283;-73
2022/07/31 02:06:21;;;;;;;13.43;12.05;;;;;;;16.04;82.83;98116.14;1308842;90;21105;-74
2022/07/31 02:08:23;;;;;;;16.73;12.13;;;;;;;16.07;82.83;98115.05;1308351;89;21141;-75
2022/07/31 02:10:26;;;;;;;20.37;11.03;;;;;;;16.06;82.85;98108.90;1307112;90;81982;-73
2022/07/31 02:12:28;;;;;;;15.38;11.38;;;;;;;16.05;82.86;98111.19;1308408;89;21062;-73
2022/07/31 02:14:30;;;;;;;18.80;10.75;;;;;;;16.04;82.88;98109.50;1306829;90;82049;-75
2022/07/31 02:16:31;;;;;;;15.50;11.05;;;;;;;16.04;82.88;98100.69;1308872;90;21027;-74
2022/07/31 02:18:33;;;;;;;13.83;10.82;;;;;;;16.04;82.90;98101.52;1307611;89;21079;-74
2022/07/31 02:20:37;;;;;;;17.82;10.18;;;;;;;16.05;82.90;98100.56;1306893;89;82097;-74
2022/07/31 02:22:39;;;;;;;16.37;9.38;;;;;;;16.04;82.92;98098.03;1309230;90;21054;-73
2022/07/31 02:24:40;;;;;;;16.77;9.55;;;;;;;16.03;82.95;98095.84;1298776;90;81764;-73
2022/07/31 02:26:41;;;;;;;;;;;;;;;16.03;82.95;98094.52;1335734;88;21059;-75
2022/07/31 02:28:43;;;;;;;13.13;9.35;;;;;;;16.03;83.00;98091.02;1308756;90;20442;-75
2022/07/31 02:30:46;;;;;;;11.83;8.65;;;;;;;16.01;83.01;98096.48;1306516;89;81612;-75
2022/07/31 02:32:49;;;;;;;12.50;9.55;;;;;;;16.02;83.00;98094.65;1300552;90;21074;-74
2022/07/31 02:34:53;;;;;;;10.82;8.50;;;;;;;16.00;83.00;98086.34;1334812;87;81745;-76
2022/07/31 02:36:55;;;;;;;9.98;8.75;;;;;;;16.02;83.02;98090.20;1351740;87;21664;-74
2022/07/31 02:38:57;;;;;;;14.28;9.60;;;;;;;16.01;83.03;98089.83;1323808;89;21047;-74
2022/07/31 02:41:02;;;;;;;12.18;9.53;;;;;;;16.01;83.04;98080.53;1321638;88;82197;-74
2022/07/31 02:43:04;;;;;;;14.10;10.20;;;;;;;16.03;83.05;98080.39;1322373;88;21256;-75
2022/07/31 02:45:09;;;;;;;12.65;8.98;;;;;;;16.04;83.08;98079.43;1335844;88;82239;-74
2022/07/31 02:47:11;;;;;;;11.12;7.83;;;;;;;16.03;83.05;98074.58;1300699;89;21987;-75
2022/07/31 02:49:14;;;;;;;18.35;8.53;;;;;;;16.03;83.06;98080.39;1303093;89;21042;-74
2022/07/31 02:51:15;;;;;;;12.63;8.68;;;;;;;16.03;83.08;98084.38;1300355;89;80863;-73
2022/07/31 02:53:16;;;;;;;11.33;8.28;;;;;;;16.04;83.10;98084.74;1302602;89;21097;-73
2022/07/31 02:55:17;;;;;;;18.57;7.87;;;;;;;16.05;83.11;98081.95;1301274;89;81011;-74
2022/07/31 02:57:18;;;;;;;8.48;7.47;;;;;;;16.07;83.11;98084.48;1301547;89;21078;-74
2022/07/31 02:59:21;;;;;;;;;;;;;;;16.07;83.12;98081.81;1303582;89;81859;-74
2022/07/31 03:01:22;;;;;;;9.98;6.60;;;;;;;16.07;83.17;98082.65;1321940;88;20153;-74
2022/07/31 03:03:22;;;;;;;;;;;;;;;16.07;83.18;98083.14;1326048;88;21192;-73
2022/07/31 03:05:23;;;;;;;8.95;6.00;;;;;;;16.06;83.23;98082.31;1320056;88;68128;-75
2022/07/31 03:07:24;;;;;;;13.13;5.72;;;;;;;16.05;83.22;98083.75;1336564;88;21098;-76
2022/07/31 03:09:26;;;;;;;;;;;;;;;16.06;83.20;98080.13;1301491;90;82197;-76
2022/07/31 03:11:27;;;;;;;6.05;5.47;;;;;;;16.05;83.26;98080.63;1322535;89;20138;-74
2022/07/31 03:13:31;;;;;;;5.80;5.28;;;;;;;16.04;83.23;98076.27;1323593;89;21043;-74
2022/07/31 03:15:33;;;;;;;4.87;4.47;;;;;;;16.05;83.28;98073.98;1321384;88;80785;-74
2022/07/31 03:17:36;;;;;;;8.73;4.53;;;;;;;16.06;83.27;98074.34;1336079;88;21074;-75
2022/07/31 03:19:37;;;;;;;8.65;4.20;;;;;;;16.07;83.26;98076.50;1328250;88;81283;-75
2022/07/31 03:21:39;;;;;;;3.42;3.22;;;;;;;16.04;83.28;98069.62;1323400;88;21094;-75
2022/07/31 03:23:41;;;;;;;3.52;3.22;;;;;;;16.07;83.31;98070.69;1323713;88;21650;-74
2022/07/31 03:25:42;;;;;;;4.80;3.45;;;;;;;16.07;83.31;98062.71;1306010;89;81306;-74
2022/07/31 03:27:45;;;;;;;3.83;2.50;;;;;;;16.09;83.33;98062.58;1296365;90;22200;-75
2022/07/31 03:29:46;;;;;;;3.33;2.40;;;;;;;16.09;83.33;98066.09;1319916;89;81756;-74
2022/07/31 03:31:47;;;;;;;;;;;;;;;16.09;83.32;98056.80;1326608;88;21099;-74
2022/07/31 03:33:48;;;;;;;5.72;3.00;;;;;;;16.10;83.39;98059.81;1301701;90;20214;-75
2022/07/31 03:35:49;;;;;;;;;;;;;;;16.10;83.41;98058.48;1333601;88;80766;-75
2022/07/31 03:37:51;;;;;;;2.50;2.30;;;;;;;16.10;83.44;98049.19;1336641;89;20170;-75
2022/07/31 03:39:52;;;;;;;4.17;2.00;;;;;;;16.12;83.43;98059.68;1324880;87;82749;-74
2022/07/31 03:41:54;;;;;;;;;;;;;;;16.13;83.42;98057.35;1327301;88;21056;-73
2022/07/31 03:43:55;;;;;;;3.50;2.30;;;;;;;16.14;83.47;98056.39;1330544;89;20472;-75
2022/07/31 03:45:59;;;;;;;3.20;2.90;;;;;;;16.14;83.47;98051.94;1328039;87;81589;-75
2022/07/31 03:48:01;;;;;;;2.37;2.27;;;;;;;16.15;83.44;98057.58;1331722;87;21538;-76
2022/07/31 03:50:03;;;;;;;2.50;2.27;;;;;;;16.16;83.43;98055.28;1329613;87;80790;-75
2022/07/31 03:52:05;;;;;;;6.65;2.75;;;;;;;16.18;83.43;98056.48;1339346;88;21058;-74
2022/07/31 03:54:06;;;;;;;2.90;2.35;;;;;;;16.20;83.43;98059.00;1330590;89;21054;-74
2022/07/31 03:56:09;;;;;;;2.65;2.55;;;;;;;16.20;83.43;98061.66;1328200;89;81527;-73
2022/07/31 03:58:11;;;;;;;2.90;2.70;;;;;;;16.22;83.45;98061.89;1312128;89;21090;-74
2022/07/31 04:00:13;;;;;;;2.95;2.75;;;;;;;16.25;83.45;98066.10;1328624;88;81332;-74
2022/07/31 04:02:14;;;;;;;5.00;2.92;;;;;;;16.25;83.45;98065.61;1331165;87;21094;-74
2022/07/31 04:04:17;;;;;;;4.08;2.60;;;;;;;16.27;83.44;98066.80;1338389;87;21653;-74
2022/07/31 04:06:17;;;;;;;3.15;2.85;;;;;;;16.27;83.43;98066.80;1336770;87;21086;-74
2022/07/31 04:08:18;;;;;;;;;;;;;;;16.29;83.42;98071.52;1339261;88;21071;-74
2022/07/31 04:10:19;;;;;;;2.40;2.30;;;;;;;16.29;83.45;98068.85;1326298;88;67140;-74
2022/07/31 04:12:20;;;;;;;;;;;;;;;16.28;83.42;98066.69;1333833;88;21142;-73
2022/07/31 04:14:21;;;;;;;1.65;1.55;;;;;;;16.27;83.40;98069.45;1339193;87;67340;-73
2022/07/31 04:16:22;;;;;;;2.50;1.47;;;;;;;16.25;83.35;98066.93;1340354;88;21089;-74
2022/07/31 04:18:23;;;;;;;;;;;;;;;16.24;83.33;98070.59;1331405;89;21538;-74
2022/07/31 04:20:24;;;;;;;3.87;1.20;;;;;;;16.23;83.30;98072.05;1327691;88;68102;-75
2022/07/31 04:22:25;;;;;;;3.15;0.80;;;;;;;16.21;83.24;98074.81;1309417;90;21621;-74
2022/07/31 04:24:25;;;;;;;;;;;;;;;16.20;83.19;98074.95;1309366;89;81705;-75
2022/07/31 04:26:28;;;;;;;2.20;0.82;;;;;;;16.17;83.18;98078.25;1330916;88;20156;-75
2022/07/31 04:28:29;;;;;;;0.80;0.70;;;;;;;16.13;83.16;98075.96;1337291;87;21066;-75
2022/07/31 04:30:30;;;;;;;;;;;;;;;16.12;83.12;98083.11;1339217;87;81422;-74
2022/07/31 04:32:31;;;;;;;3.05;1.05;;;;;;;16.10;83.13;98081.08;1330637;87;20189;-75
2022/07/31 04:34:31;;;;;;;;;;;;;;;16.09;83.13;98076.73;1331148;87;81802;-75
2022/07/31 04:36:33;;;;;;;1.30;0.70;;;;;;;16.08;83.13;98080.35;1325509;89;20222;-74
2022/07/31 04:38:34;;;;;;;0.80;0.68;;;;;;;16.06;83.13;98091.62;1335651;89;21066;-74
2022/07/31 04:40:35;;;;;;;2.72;0.80;;;;;;;16.05;83.10;98092.59;1328778;88;81844;-75
2022/07/31 04:42:36;;;;;;;;;;;;;;;16.05;83.06;98097.91;1332525;88;21118;-74
2022/07/31 04:44:37;;;;;;;7.17;0.60;;;;;;;16.05;83.10;98101.03;1328089;88;68166;-75
2022/07/31 04:46:38;;;;;;;;;;;;;;;16.03;83.07;98101.16;1333034;88;21023;-73
2022/07/31 04:48:39;;;;;;;0.82;0.68;;;;;;;16.02;83.07;98104.81;1322928;88;20158;-75
2022/07/31 04:50:42;;;;;;;0.70;0.70;;;;;;;16.00;83.05;98105.41;1291317;89;81606;-75
2022/07/31 04:52:42;;;;;;;;;;;;;;;16.00;83.07;98110.27;1326342;88;21038;-75
2022/07/31 04:54:43;;;;;;;1.02;0.70;;;;;;;15.99;83.03;98111.70;1300078;91;67138;-75
2022/07/31 04:56:46;;;;;;;;;;;;;;;15.97;83.02;98118.47;1326107;88;21083;-75
2022/07/31 04:58:47;;;;;;;5.40;0.70;;;;;;;15.95;83.03;98112.92;1323972;89;20162;-72
2022/07/31 05:00:47;;;;;;;;;;;;;;;15.94;83.02;98119.23;1336194;87;80789;-73
2022/07/31 05:02:48;;;;;;;7.87;0.90;;;;;;;15.93;83.05;98120.20;1335632;87;20376;-73
2022/07/31 05:04:49;;;;;;;1.70;0.78;;;;;;;15.92;83.06;98126.48;1328578;88;81468;-73
2022/07/31 05:06:51;;;;;;;;;;;;;;;15.92;83.07;98122.49;1332695;87;21997;-73
2022/07/31 05:08:51;;;;;;;;;;;;;;;15.90;83.06;98125.28;1324518;88;20384;-73
2022/07/31 05:13:12;;;;;;;2.72;1.00;;;;;;;15.88;83.12;98130.36;1342199;87;21051;-74
2022/07/31 05:15:12;;;;;;;;;;;;;;;15.89;83.10;98134.72;1313635;90;82026;-74
2022/07/31 05:17:14;;;;;;;0.95;0.95;;;;;;;15.89;83.17;98136.05;1323457;89;20154;-74
2022/07/31 05:19:15;;;;;;;5.55;0.95;;;;;;;15.87;83.16;98136.17;1324353;88;21035;-74
2022/07/31 05:21:17;;;;;;;2.52;0.75;;;;;;;15.87;83.14;98134.84;1334470;87;81786;-73
2022/07/31 05:23:18;;;;;;;0.98;0.88;;;;;;;15.87;83.15;98140.63;1330577;88;21024;-74
2022/07/31 05:25:19;;;;;;;1.02;0.90;;;;;;;15.86;83.14;98141.63;1327913;88;80861;-74
2022/07/31 05:27:20;;;;;;;1.05;0.98;;;;;;;15.86;83.14;98142.95;1321163;89;21056;-74
2022/07/31 05:29:21;;;;;;;;;;;;;;;15.85;83.16;98149.23;1323041;89;81822;-74
2022/07/31 05:31:22;;;;;;;2.08;1.00;;;;;;;15.84;83.20;98157.70;1322262;89;20174;-74
2022/07/31 05:33:23;;;;;;;0.80;0.80;;;;;;;15.82;83.20;98149.86;1336067;88;21055;-73
2022/07/31 05:35:24;;;;;;;;;;;;;;;15.82;83.20;98151.66;1331024;88;81449;-73
2022/07/31 05:37:25;;;;;;;1.60;1.07;;;;;;;15.82;83.26;98152.98;1329446;88;20210;-73
2022/07/31 05:39:27;;;;;;;;;;;;;;;15.81;83.28;98148.63;1331086;87;80831;-73
2022/07/31 05:41:29;;;;;;;2.00;1.05;;;;;;;15.81;83.31;98149.95;1331158;88;20185;-73
2022/07/31 05:43:30;;;;;;;1.10;1.00;;;;;;;15.79;83.27;98154.08;1331548;87;21551;-74
2022/07/31 05:45:34;;;;;;;6.00;1.22;;;;;;;15.80;83.27;98154.94;1329409;88;80689;-74
2022/07/31 05:47:35;;;;;;;5.15;1.40;;;;;;;15.80;83.27;98157.09;1330775;87;21407;-74
2022/07/31 05:49:36;;;;;;;4.05;1.60;;;;;;;15.80;83.28;98162.91;1352521;87;81994;-74
2022/07/31 05:51:37;;;;;;;;;;;;;;;15.80;83.28;98160.25;1338678;89;21751;-74
2022/07/31 05:53:39;;;;;;;0.80;0.80;;;;;;;15.78;83.32;98157.69;1336342;88;20192;-74
2022/07/31 05:55:48;;;;;;;5.67;0.98;;;;;;;15.78;83.30;98164.34;1333400;89;81661;-73
2022/07/31 05:57:46;;;;;;;6.75;1.20;;;;;;;15.75;83.25;98161.91;1335462;88;21012;-74
2022/07/31 05:59:47;;;;;;;1.85;1.00;;;;;;;15.76;83.31;98168.91;1334461;88;81354;-74
2022/07/31 06:01:48;;;;;;;1.35;1.00;;;;;;;15.77;83.30;98163.97;1337318;87;21063;-73
2022/07/31 06:03:49;;;;;;;;;;;;;;;15.76;83.30;98167.59;1325826;88;21719;-76
2022/07/31 06:05:50;;;;;;;4.90;0.98;;;;;;;15.77;83.35;98165.30;1334637;88;68122;-74
2022/07/31 06:07:51;;;;;;;2.72;1.05;;;;;;;15.76;83.34;98166.26;1337066;87;21653;-75
2022/07/31 06:09:52;;;;;;;;;;;;;;;15.75;83.34;98161.91;1336602;88;81540;-75
2022/07/31 06:11:53;;;;;;;1.52;0.82;;;;;;;15.75;83.36;98158.42;1309428;89;20155;-76
2022/07/31 06:13:54;;;;;;;;;;;;;;;15.68;83.38;98155.42;1338972;89;21011;-75
2022/07/31 06:15:55;;;;;;;5.15;1.30;;;;;;;15.75;83.42;98166.39;1328715;89;67287;-73
2022/07/31 06:17:56;;;;;;;7.08;1.10;;;;;;;15.75;83.45;98167.22;1328909;88;21050;-75
2022/07/31 06:19:56;;;;;;;;;;;;;;;15.76;83.44;98168.91;1331443;88;81657;-76
2022/07/31 06:21:59;;;;;;;5.83;0.90;;;;;;;15.76;83.47;98164.94;1328953;89;20735;-76
2022/07/31 06:24:00;;;;;;;2.50;1.00;;;;;;;15.76;83.47;98167.59;1330822;88;21205;-75
2022/07/31 06:26:01;;;;;;;2.58;1.02;;;;;;;15.77;83.43;98167.95;1329325;88;82109;-76
2022/07/31 06:28:02;;;;;;;;;;;;;;;15.78;83.48;98166.99;1342219;87;21046;-75
2022/07/31 06:30:04;;;;;;;1.52;1.25;;;;;;;15.78;83.53;98160.35;1328440;88;67139;-75
2022/07/31 06:32:06;;;;;;;8.23;1.20;;;;;;;15.77;83.54;98165.77;1309234;89;21022;-75
2022/07/31 06:34:07;;;;;;;9.33;1.30;;;;;;;15.76;83.52;98171.58;1339894;87;21114;-75
2022/07/31 06:36:08;;;;;;;1.37;1.10;;;;;;;15.76;83.54;98174.23;1325613;88;81621;-76
2022/07/31 06:38:08;;;;;;;;;;;;;;;15.76;83.56;98169.41;1308368;91;21113;-76
2022/07/31 06:40:11;;;;;;;10.95;1.10;;;;;;;15.75;83.60;98172.53;1306862;89;68051;-76
2022/07/31 06:42:17;;;;;;;1.50;1.10;;;;;;;15.74;83.61;98173.53;1290868;90;21235;-76
2022/07/31 06:44:19;;;;;;;2.30;1.07;;;;;;;15.74;83.60;98167.35;1305526;90;81042;-76
2022/07/31 06:46:20;;;;;;;4.80;0.90;;;;;;;15.73;83.60;98171.83;1293743;90;22397;-77
2022/07/31 06:48:21;;;;;;;;;;;;;;;15.73;83.63;98173.16;1306583;90;21256;-76
2022/07/31 06:50:21;;;;;;;15.80;1.30;;;;;;;15.73;83.67;98178.48;1307490;89;67976;-76
2022/07/31 06:52:22;;;;;;;;;;;;;;;15.64;83.74;98161.95;1308969;89;21134;-76
2022/07/31 06:54:23;;;;;;;2.55;1.10;;;;;;;15.72;83.81;98172.80;1306379;89;69849;-76
2022/07/31 06:56:24;;;;;;;2.70;0.95;;;;;;;15.72;83.82;98175.95;1339400;88;21067;-75
2022/07/31 06:58:25;;;;;;;;;;;;;;;15.72;83.82;98181.27;1337785;87;21616;-76
2022/07/31 07:00:26;;;;;;;11.63;1.30;;;;;;;15.70;83.83;98185.38;1333712;87;67167;-75
2022/07/31 07:02:27;;;;;;;7.40;1.22;;;;;;;15.68;83.84;98180.66;1328357;88;21067;-74
2022/07/31 07:04:28;;;;;;;;;;;;;;;15.68;83.84;98184.64;1328229;88;80913;-75
2022/07/31 07:06:29;;;;;;;0.95;0.95;;;;;;;15.68;83.89;98181.98;1307824;89;20308;-74
2022/07/31 07:08:30;;;;;;;;;;;;;;;15.66;83.86;98186.59;1308972;90;21105;-75
2022/07/31 07:10:31;;;;;;;1.60;1.15;;;;;;;15.63;83.89;98182.84;1304586;89;67229;-74
2022/07/31 07:12:32;;;;;;;;;;;;;;;15.63;83.88;98194.80;1330978;89;21063;-74
2022/07/31 07:14:32;;;;;;;1.02;0.72;;;;;;;15.62;83.93;98197.12;1307544;89;67925;-75
2022/07/31 07:16:33;;;;;;;;;;;;;;;15.60;83.94;98199.03;1308093;89;21074;-74
2022/07/31 07:18:34;;;;;;;0.87;0.80;;;;;;;15.59;83.93;98200.00;1308480;90;20498;-74
2022/07/31 07:20:35;;;;;;;;;;;;;;;15.55;83.95;98194.11;1307552;89;81668;-74
2022/07/31 07:22:36;;;;;;;10.13;0.95;;;;;;;15.54;83.94;98200.88;1308664;88;20465;-73
2022/07/31 07:24:37;;;;;;;;;;;;;;;15.49;83.90;98199.44;1309682;89;81641;-73
2022/07/31 07:26:38;;;;;;;3.22;1.07;;;;;;;15.46;83.94;98200.99;1309196;89;21169;-73
2022/07/31 07:28:38;;;;;;;;;;;;;;;15.46;83.96;98200.99;1308864;89;21122;-73
2022/07/31 07:30:39;;;;;;;1.15;1.00;;;;;;;15.48;84.01;98196.91;1306573;89;68069;-73
2022/07/31 07:32:40;;;;;;;;;;;;;;;15.48;84.04;98203.05;1294817;90;21131;-72
2022/07/31 07:34:41;;;;;;;0.72;0.62;;;;;;;15.52;84.08;98201.47;1307289;89;67118;-72
2022/07/31 07:36:41;;;;;;;;;;;;;;;15.49;83.99;98202.09;1307328;90;21777;-73
2022/07/31 07:38:43;;;;;;;0.70;0.70;;;;;;;15.48;84.00;98207.04;1309107;89;20162;-73
2022/07/31 07:40:44;;;;;;;2.50;0.80;;;;;;;15.47;83.95;98208.49;1281700;91;81575;-73
2022/07/31 07:42:45;;;;;;;;;;;;;;;15.43;83.93;98203.07;1335322;87;21071;-73
2022/07/31 07:44:46;;;;;;;3.95;0.93;;;;;;;15.45;83.99;98212.61;1331541;88;68669;-72
2022/07/31 07:46:46;;;;;;;;;;;;;;;15.45;83.98;98211.28;1336062;88;21495;-73
2022/07/31 07:48:49;;;;;;;1.12;1.00;;;;;;;15.45;83.97;98217.05;1308685;90;20145;-73
2022/07/31 07:50:50;;;;;;;0.68;0.68;;;;;;;15.43;83.98;98209.70;1298054;91;81561;-73
2022/07/31 07:52:51;;;;;;;;;;;;;;;15.42;83.89;98217.30;1335115;89;21043;-73
2022/07/31 07:54:52;;;;;;;11.43;0.90;;;;;;;15.40;83.89;98220.59;1307114;89;67336;-72
2022/07/31 07:56:53;;;;;;;;;;;;;;;15.36;83.86;98217.81;1302592;91;21111;-72
2022/07/31 07:58:54;;;;;;;2.92;0.70;;;;;;;15.33;83.88;98229.03;1308283;89;20222;-73
2022/07/31 08:00:55;;;;;;;;;;;;;;;15.31;83.91;98226.99;1309067;89;80823;-72
2022/07/31 08:02:56;;;;;;;1.20;0.70;;;;;;;15.30;83.86;98231.09;1308932;89;21048;-72
2022/07/31 08:04:57;;;;;;;;;;;;;;;15.28;83.87;98242.31;1308408;90;81500;-72
2022/07/31 08:06:58;;;;;;;4.12;0.90;;;;;;;15.26;83.90;98236.30;1307291;89;20169;-72
2022/07/31 08:08:59;;;;;;;1.45;1.22;;;;;;;15.25;83.92;98246.05;1300839;90;21074;-72
2022/07/31 08:11:02;;;;;;;;;;;;;;;15.25;83.94;98237.25;1334035;88;80895;-72
2022/07/31 08:13:03;;;;;;;3.62;1.12;;;;;;;15.24;84.00;98241.70;1307916;89;20206;-72
2022/07/31 08:15:06;;;;;;;1.20;1.10;;;;;;;15.24;83.97;98244.35;1297952;90;80745;-73
2022/07/31 08:17:12;;;;;;;2.00;0.98;;;;;;;15.24;83.98;98251.48;1333031;88;21089;-72
2022/07/31 08:19:13;;;;;;;4.53;1.05;;;;;;;15.24;84.00;98244.35;1331813;87;21623;-72
2022/07/31 08:21:14;;;;;;;1.52;0.90;;;;;;;15.23;84.00;98249.78;1286691;91;80749;-72
2022/07/31 08:23:15;;;;;;;2.37;1.10;;;;;;;15.24;84.00;98254.97;1288442;90;21034;-72
2022/07/31 08:25:16;;;;;;;;;;;;;;;15.23;83.99;98251.11;1299652;90;80701;-72
2022/07/31 08:27:23;;;;;;;1.85;1.27;;;;;;;15.23;84.04;98255.95;1333360;87;20298;-72
2022/07/31 08:29:24;;;;;;;1.75;1.05;;;;;;;15.22;84.03;98260.06;1286177;92;80939;-72
2022/07/31 08:31:25;;;;;;;1.55;1.00;;;;;;;15.22;84.04;98266.70;1300258;91;21393;-72
2022/07/31 08:33:26;;;;;;;;;;;;;;;15.22;84.04;98263.55;1335753;87;22069;-72
2022/07/31 08:35:27;;;;;;;4.70;1.27;;;;;;;15.23;84.08;98257.75;1306852;90;67288;-72
2022/07/31 08:37:29;;;;;;;1.32;1.10;;;;;;;15.23;84.11;98268.37;1302936;89;21106;-72
2022/07/31 08:39:30;;;;;;;1.32;1.07;;;;;;;15.23;84.07;98264.39;1304422;89;80881;-72
2022/07/31 08:41:31;;;;;;;1.07;1.00;;;;;;;15.22;84.05;98265.38;1306444;89;21083;-71
2022/07/31 08:43:32;;;;;;;1.15;1.07;;;;;;;15.23;84.07;98267.04;1306345;89;21070;-71
2022/07/31 08:45:36;;;;;;;1.22;1.20;;;;;;;15.24;84.12;98268.24;1304697;90;81528;-71
2022/07/31 08:47:41;;;;;;;3.58;1.37;;;;;;;15.28;84.04;98264.88;1306911;90;21083;-72
2022/07/31 08:49:44;;;;;;;2.60;1.32;;;;;;;15.28;84.04;98264.88;1303786;90;80741;-71
2022/07/31 08:51:45;;;;;;;2.45;1.30;;;;;;;15.29;84.16;98264.75;1306622;89;21570;-71
2022/07/31 08:53:49;;;;;;;4.62;1.30;;;;;;;15.32;84.17;98266.33;1327911;89;21031;-72
2022/07/31 08:55:51;;;;;;;3.35;1.10;;;;;;;15.34;84.12;98265.73;1326163;88;81452;-71
2022/07/31 08:57:52;;;;;;;3.92;1.20;;;;;;;15.34;84.11;98267.06;1328158;88;21146;-72
2022/07/31 08:59:54;;;;;;;1.40;1.30;;;;;;;15.37;84.13;98268.14;1325626;88;80592;-71
2022/07/31 09:01:59;;;;;;;4.40;1.55;;;;;;;15.39;84.14;98267.52;1308447;89;21058;-71
2022/07/31 09:03:58;;;;;;;7.35;1.80;;;;;;;15.39;84.14;98267.52;1306221;89;21074;-72
2022/07/31 09:05:59;;;;;;;6.75;1.75;;;;;;;15.42;84.16;98270.42;1305340;90;80842;-71
2022/07/31 09:08:00;;;;;;;;;;;;;;;15.42;84.15;98272.58;1309452;89;21107;-71
2022/07/31 09:10:03;;;;;;;10.75;1.65;;;;;;;15.43;84.20;98270.29;1307131;89;67407;-71
2022/07/31 09:12:05;;;;;;;7.83;1.52;;;;;;;15.44;84.18;98275.97;1305407;90;21060;-71
2022/07/31 09:14:06;;;;;;;9.23;1.80;;;;;;;15.42;84.39;98263.78;1308262;89;21090;-71
2022/07/31 09:16:07;;;;;;;4.60;1.75;;;;;;;15.47;84.17;98274.39;1306912;88;80939;-71
2022/07/31 09:18:24;;;;;;;1.62;1.52;;;;;;;15.49;84.18;98272.48;1306555;89;21071;-71
2022/07/31 09:20:28;;;;;;;1.47;1.42;;;;;;;15.49;84.18;98272.48;1304834;89;81641;-71
2022/07/31 09:22:30;;;;;;;3.70;1.62;;;;;;;15.49;84.14;98272.48;1306925;89;21067;-71
2022/07/31 09:24:34;;;;;;;2.35;1.50;;;;;;;15.51;84.16;98275.00;1309358;89;80950;-71
2022/07/31 09:26:36;;;;;;;1.67;1.42;;;;;;;15.48;84.08;98274.77;1312837;89;21058;-71
2022/07/31 09:28:39;;;;;;;1.65;1.40;;;;;;;15.47;84.06;98277.05;1287341;91;21380;-70
2022/07/31 09:30:41;;;;;;;6.47;1.50;;;;;;;15.45;84.08;98281.66;1304418;89;82013;-71
2022/07/31 09:32:42;;;;;;;1.27;1.20;;;;;;;15.48;84.10;98278.74;1306143;90;21461;-71
2022/07/31 09:34:43;;;;;;;;;;;;;;;15.50;84.10;98279.45;1328711;88;81644;-71
2022/07/31 09:36:44;;;;;;;3.67;1.30;;;;;;;15.53;84.18;98271.73;1308222;89;20231;-71
2022/07/31 09:38:45;;;;;;;;;;;;;;;15.55;84.12;98275.58;1303843;90;21076;-71
2022/07/31 09:40:46;;;;;;;1.87;1.70;;;;;;;15.57;84.12;98281.63;1306280;89;68424;-71
2022/07/31 09:42:49;;;;;;;6.85;2.00;;;;;;;15.59;84.13;98283.67;1299800;90;21102;-70
2022/07/31 09:44:50;;;;;;;5.00;1.80;;;;;;;15.61;84.17;98281.75;1331718;87;81002;-71
2022/07/31 09:46:52;;;;;;;2.80;1.87;;;;;;;15.63;84.09;98283.32;1332661;87;21072;-71
2022/07/31 09:48:54;;;;;;;;;;;;;;;15.64;84.09;98282.83;1335551;88;21007;-71